Latest Weather Observations for Perisher Valley

IDN60801

Issued at 5:03 pm EST Monday 29 August 2016 (issued every 30 minutes, with the page automatically refreshed every 10 minutes)

About weather observations | Map of weather stations | Latest weather observations for NSW | Other Formats
Station Details ID: 071075 Name: PERISHER VALLEY AWS Lat: -36.41 Lon: 148.41 Height: 1738.0 m
Data from the previous 72 hours. | See also: Recent months at Perisher Valley
Date/Time
EST
Temp
°C
App
Temp
°C
Dew
Point
°C
Rel
Hum
%
Delta-T
°C
Wind Press
QNH
hPa
Press
MSL
hPa
Rain since
9am
mm
Dir  Spd
km/h
Gust
km/h
Spd
kts
Gust
kts
29/05:00pm 4.9 2.6 0.1 71 2.1 NW 2 6 1 3 - - 0.0
29/04:30pm 5.7 3.0 0.1 67 2.4 WNW 4 9 2 5 - - 0.0
29/04:00pm 8.1 5.3 -0.6 54 3.8 N 4 11 2 6 - - 0.0
29/03:30pm 7.4 4.4 -1.8 52 3.9 N 4 11 2 6 - - 0.0
29/03:00pm 7.4 4.8 -1.8 52 3.9 NNW 2 7 1 4 - - 0.0
29/02:30pm 7.0 3.6 -2.2 52 3.8 NW 6 11 3 6 - - 0.0
29/02:00pm 7.6 3.6 -7.6 33 5.6 NNE 6 11 3 6 - - 0.0
29/01:30pm 6.6 2.2 -5.4 42 4.6 NE 9 15 5 8 - - 0.0
29/01:00pm 6.4 2.9 -3.2 50 3.9 NNE 6 9 3 5 - - 0.0
29/12:30pm 5.7 1.9 -3.9 50 3.8 NE 7 13 4 7 - - 0.0
29/12:00pm 5.7 2.1 -3.9 50 3.8 NE 6 13 3 7 - - 0.0
29/11:30am 5.7 1.8 -4.7 47 4.0 NNE 7 15 4 8 - - 0.0
29/11:00am 4.8 0.0 -6.1 45 4.0 NNE 11 19 6 10 - - 0.0
29/10:30am 4.5 0.2 -4.5 52 3.4 NE 9 15 5 8 - - 0.0
29/10:00am 4.3 0.5 -3.9 55 3.2 NE 7 11 4 6 - - 0.0
29/09:30am 3.6 -0.2 -3.9 58 2.9 NNE 7 11 4 6 - - 0.0
29/09:00am 3.3 -0.3 -3.7 60 2.7 NE 6 9 3 5 - - 0.0
29/08:30am 0.8 -2.2 -5.6 62 2.3 NNE 2 4 1 2 - - 0.0
29/08:00am -1.8 -4.6 -6.9 68 1.6 CALM 0 0 0 0 - - 0.0
29/07:30am -3.6 -6.5 -8.4 69 1.4 CALM 0 6 0 3 - - 0.0
29/07:00am -4.0 -7.2 -7.6 76 1.0 SW 2 7 1 4 - - 0.0
29/06:30am -4.7 -8.3 -7.6 80 0.7 SW 4 9 2 5 - - 0.0
29/06:00am -4.5 -8.1 -7.3 81 0.7 SW 4 9 2 5 - - 0.0
29/05:30am -4.5 -8.5 -7.6 79 0.8 SW 6 9 3 5 - - 0.0
29/05:00am -3.4 -7.0 -7.2 75 1.1 WSW 4 7 2 4 - - 0.0
29/04:30am -2.1 -6.0 -6.1 74 1.3 WSW 6 15 3 8 - - 0.0
29/04:00am -1.7 -5.0 -4.7 80 1.0 W 4 11 2 6 - - 0.0
29/03:30am -0.3 -4.2 -4.2 75 1.4 WSW 7 19 4 10 - - 0.0
29/03:00am -0.3 -5.3 -4.4 74 1.5 WSW 13 26 7 14 - - 0.0
29/02:30am 0.0 -5.8 -4.2 73 1.5 WSW 17 32 9 17 - - 0.0
29/02:00am -0.3 -5.1 -6.3 64 2.1 SW 11 28 6 15 - - 0.0
29/01:30am 0.2 -5.0 -6.0 63 2.2 WSW 13 28 7 15 - - 0.0
29/01:00am -0.4 -5.8 -4.1 76 1.3 SW 15 24 8 13 - - 0.0
29/12:30am -0.1 -4.9 -5.9 65 2.0 SW 11 26 6 14 - - 0.0
29/12:00am 0.0 -3.9 -6.6 61 2.3 SSW 6 13 3 7 - - 0.0
 
Date/Time
EST
Temp
°C
App
Temp
°C
Dew
Point
°C
Rel
Hum
%
Delta-T
°C
Wind Press
QNH
hPa
Press
MSL
hPa
Rain since
9am
mm
Dir  Spd
km/h
Gust
km/h
Spd
kts
Gust
kts
28/11:30pm 0.2 -6.0 -4.6 70 1.8 W 19 26 10 14 - - 0.0
28/11:00pm -0.1 -5.0 -3.0 81 1.1 W 13 19 7 10 - - 0.0
28/10:30pm -0.3 -5.5 -2.5 85 0.8 W 15 26 8 14 - - 0.0
28/10:00pm 0.0 -5.9 -2.1 86 0.8 W 19 26 10 14 - - 0.0
28/09:30pm 0.2 -3.2 -1.7 87 0.8 WNW 6 20 3 11 - - 0.0
28/09:00pm -0.3 -3.4 -2.5 85 0.8 ENE 4 9 2 5 - - 0.0
28/08:30pm 0.3 -3.0 -1.6 87 0.8 W 6 17 3 9 - - 0.0
28/08:00pm 0.4 -3.1 -1.5 87 0.8 W 7 15 4 8 - - 0.0
28/07:30pm 0.6 -4.9 -1.8 84 1.0 WSW 17 35 9 19 - - 0.0
28/07:00pm 0.6 -4.5 -1.6 85 0.9 W 15 26 8 14 - - 0.0
28/06:30pm 0.6 -4.4 -1.5 86 0.9 W 15 30 8 16 - - 0.0
28/06:00pm 0.8 -4.7 -1.8 83 1.1 W 17 32 9 17 - - 0.0
28/05:30pm 1.0 -3.0 -2.4 78 1.4 W 9 19 5 10 - - 0.0
28/05:00pm 1.0 -3.0 -2.2 79 1.3 W 9 28 5 15 - - 0.0
28/04:30pm 1.3 -3.5 -2.3 77 1.5 W 13 32 7 17 - - 0.0
28/04:00pm 1.0 -3.7 -1.7 82 1.1 W 13 30 7 16 - - 0.0
28/03:30pm 1.1 -4.4 -1.8 81 1.2 W 17 33 9 18 - - 0.0
28/03:00pm 1.7 -4.2 -2.2 75 1.5 W 19 35 10 19 - - 0.0
28/02:30pm 1.4 -5.0 -2.0 78 1.3 WSW 22 41 12 22 - - 0.0
28/02:00pm 1.4 -4.7 -2.2 77 1.5 W 20 35 11 19 - - 0.0
28/01:30pm 1.3 -4.2 -2.3 77 1.5 W 17 35 9 19 - - 0.0
28/01:00pm 1.8 -3.3 -2.0 76 1.5 W 15 32 8 17 - - 0.0
28/12:30pm 1.1 -5.0 -2.5 77 1.5 W 20 41 11 22 - - 0.0
28/12:00pm -0.3 -6.7 -2.0 88 0.6 W 22 43 12 23 - - 0.0
28/11:30am 0.2 -5.9 -2.3 83 1.0 WSW 20 35 11 19 - - 0.0
28/11:00am -0.3 -6.4 -2.0 88 0.6 W 20 44 11 24 - - 0.0
28/10:30am -0.4 -6.3 -2.0 89 0.6 W 19 33 10 18 - - 0.0
28/10:00am -0.7 -7.9 -2.1 90 0.5 W 26 43 14 23 - - 0.0
28/09:30am -1.4 -9.0 -2.4 93 0.3 W 28 44 15 24 - - 0.0
28/09:18am -1.5 -9.1 -1.9 97 0.1 W 28 46 15 25 - - 0.0
28/09:00am -1.7 -8.2 -2.1 97 0.1 WNW 22 39 12 21 - - 0.0
28/08:30am -1.8 -9.0 -2.2 97 0.1 WNW 26 43 14 23 - - 0.0
28/08:00am -1.8 -7.3 -2.2 97 0.1 W 17 28 9 15 - - 0.0
28/07:30am -1.9 -7.8 -2.3 97 0.1 WNW 19 32 10 17 - - 0.0
28/07:00am -1.6 -7.2 -2.9 91 0.4 W 17 35 9 19 - - 0.0
28/06:30am -1.8 -8.3 -2.8 93 0.3 W 22 37 12 20 - - 0.0
28/06:00am -1.9 -8.5 -2.9 93 0.3 W 22 46 12 25 - - 0.0
28/05:30am -2.0 -7.6 -3.3 91 0.4 W 17 28 9 15 - - 0.0
28/05:00am -2.2 -8.3 -3.9 88 0.5 W 19 32 10 17 - - 0.0
28/04:30am -2.2 -8.5 -3.9 88 0.5 W 20 35 11 19 - - 0.0
28/04:00am -2.1 -8.8 -4.3 85 0.7 W 22 41 12 22 - - 0.0
28/03:30am -2.4 -10.6 -4.1 88 0.5 W 30 50 16 27 - - 0.0
28/03:00am -2.4 -11.5 -4.0 89 0.5 W 35 54 19 29 - - 0.0
28/02:30am -2.3 -11.1 -4.3 86 0.6 W 33 52 18 28 - - 0.0
28/02:00am -2.3 -11.0 -4.8 83 0.8 W 32 59 17 32 - - 0.0
28/01:30am -2.4 -10.4 -5.5 79 1.0 W 28 46 15 25 - - 0.0
28/01:12am -2.6 -11.3 -5.2 82 0.8 W 32 50 17 27 - - 0.0
28/01:00am -2.6 -11.5 -5.2 82 0.8 W 33 48 18 26 - - 0.0
28/12:30am -3.0 -11.0 -5.6 82 0.8 W 28 50 15 27 - - 0.0
28/12:00am -3.1 -11.8 -5.6 83 0.7 W 32 56 17 30 - - 0.0
 
Date/Time
EST
Temp
°C
App
Temp
°C
Dew
Point
°C
Rel
Hum
%
Delta-T
°C
Wind Press
QNH
hPa
Press
MSL
hPa
Rain since
9am
mm
Dir  Spd
km/h
Gust
km/h
Spd
kts
Gust
kts
27/11:30pm -2.8 -11.8 -5.8 80 0.9 W 33 57 18 31 - - 0.0
27/11:00pm -2.8 -11.2 -5.9 79 0.9 W 30 50 16 27 - - 0.0
27/10:37pm -2.8 -10.8 -5.3 83 0.7 W 28 52 15 28 - - 0.0
27/10:30pm -2.9 -10.4 -4.8 87 0.5 W 26 46 14 25 - - 0.0
27/10:00pm -2.6 -10.9 -4.8 85 0.6 W 30 52 16 28 - - 0.0
27/09:35pm -2.5 -10.4 -4.8 84 0.7 W 28 50 15 27 - - 0.0
27/09:30pm -2.5 -9.6 -4.4 87 0.6 W 24 50 13 27 - - 0.0
27/09:00pm -2.2 -8.5 -3.8 89 0.5 WNW 20 33 11 18 - - 0.0
27/08:30pm -2.2 -10.8 -3.8 89 0.5 W 32 46 17 25 - - 0.0
27/08:00pm -2.4 -11.1 -3.7 91 0.4 W 33 54 18 29 - - 0.0
27/07:33pm -2.1 -10.9 -4.4 84 0.7 W 33 52 18 28 - - 0.0
27/07:30pm -2.0 -11.2 -4.5 83 0.8 W 35 52 19 28 - - 0.0
27/07:00pm -2.1 -12.1 -4.4 84 0.7 W 39 57 21 31 - - 0.0
27/06:30pm -2.1 -12.1 -4.7 82 0.8 W 39 61 21 33 - - 0.0
27/06:00pm -1.1 -11.6 -5.9 70 1.6 W 41 59 22 32 - - 0.0
27/05:30pm -0.4 -9.6 -7.9 57 2.5 W 33 56 18 30 - - 0.0
27/05:01pm -0.7 -8.9 -7.3 61 2.2 W 28 52 15 28 - - 0.0
27/05:00pm -0.9 -8.6 -6.6 65 1.9 W 26 50 14 27 - - 0.0
27/04:30pm -0.5 -8.2 -6.7 63 2.1 W 26 48 14 26 - - 0.0
27/04:01pm 0.5 -7.6 -7.0 57 2.6 W 28 54 15 29 - - 0.0
27/04:00pm 0.7 -7.5 -7.3 55 2.8 W 28 44 15 24 - - 0.0
27/03:30pm 0.1 -8.3 -5.9 64 2.1 W 30 50 16 27 - - 0.0
27/03:14pm -0.6 -8.9 -5.4 70 1.7 W 30 48 16 26 - - 0.0
27/03:00pm -0.3 -8.6 -5.3 69 1.8 W 30 48 16 26 - - 0.0
27/02:53pm -0.3 -8.3 -5.3 69 1.8 W 28 46 15 25 - - 0.0
27/02:30pm 0.0 -7.6 -5.8 65 2.0 W 26 44 14 24 - - 0.0
27/02:00pm -1.1 -10.0 -5.3 73 1.4 W 33 52 18 28 - - 0.0
27/01:30pm -1.3 -10.0 -5.1 75 1.3 W 32 54 17 29 - - 0.0
27/01:00pm -0.3 -5.8 -5.5 68 1.8 W 15 39 8 21 - - 0.0
27/12:30pm -0.1 -5.2 -5.5 67 1.9 W 13 26 7 14 - - 0.0
27/12:00pm 0.4 -4.4 -5.6 64 2.1 W 11 28 6 15 - - 0.0
27/11:30am 0.9 -4.6 -9.1 47 3.3 WNW 13 30 7 16 - - 0.0
27/11:00am 1.2 -3.9 -10.0 43 3.6 W 11 28 6 15 - - 0.0
27/10:30am 0.8 -5.5 -10.0 44 3.5 W 17 30 9 16 - - 0.0
27/10:00am 1.7 -3.2 -11.7 36 4.2 WNW 9 22 5 12 - - 0.0
27/09:30am 2.1 -2.2 -11.0 37 4.2 WSW 6 15 3 8 - - 0.0
27/09:00am 0.9 -4.3 -11.1 40 3.8 WNW 11 20 6 11 - - 0.0
27/08:30am 1.2 -3.4 -12.9 34 4.2 W 7 13 4 7 - - 0.0
27/08:00am 0.4 -3.2 -13.2 35 4.0 W 2 7 1 4 - - 0.0
27/07:30am -0.2 -4.9 -14.9 32 4.0 W 7 13 4 7 - - 0.0
27/07:00am -0.5 -5.9 -13.7 36 3.7 W 11 20 6 11 - - 0.0
27/06:30am -1.5 -6.9 -13.3 40 3.3 W 11 19 6 10 - - 0.0
27/06:00am -1.9 -7.3 -14.6 37 3.4 W 11 17 6 9 - - 0.0
27/05:30am -1.3 -6.5 -17.0 29 4.0 WNW 9 17 5 9 - - 0.0
27/05:00am -4.2 -8.7 -14.6 44 2.5 WSW 6 13 3 7 - - 0.0
27/04:30am -3.3 -8.0 -14.9 40 2.9 WSW 7 13 4 7 - - 0.0
27/04:00am -1.9 -6.9 -14.0 39 3.2 W 9 17 5 9 - - 0.0
27/03:30am -4.5 -8.9 -10.1 65 1.5 W 7 17 4 9 - - 0.0
27/03:00am -6.8 -10.1 -8.3 89 0.2 W 2 6 1 3 - - 0.0
27/02:30am -5.6 -8.8 -7.1 89 0.2 NW 2 6 1 3 - - 0.0
27/02:00am -5.3 -8.9 -7.0 88 0.3 W 4 11 2 6 - - 0.0
27/01:30am -7.7 -11.2 -10.4 81 0.5 WNW 2 6 1 3 - - 0.0
27/01:00am -7.0 -10.7 -8.6 88 0.2 WSW 4 9 2 5 - - 0.0
27/12:30am -7.3 -10.3 -8.9 88 0.2 CALM 0 4 0 2 - - 0.0
27/12:00am -7.5 -10.9 -9.9 83 0.4 SW 2 6 1 3 - - 0.0
 
Date/Time
EST
Temp
°C
App
Temp
°C
Dew
Point
°C
Rel
Hum
%
Delta-T
°C
Wind Press
QNH
hPa
Press
MSL
hPa
Rain since
9am
mm
Dir  Spd
km/h
Gust
km/h
Spd
kts
Gust
kts
26/11:30pm -7.4 -10.4 -9.6 84 0.4 CALM 0 6 0 3 - - 0.0
26/11:00pm -6.7 -10.0 -8.8 85 0.4 SW 2 6 1 3 - - 0.0
26/10:30pm -6.8 -10.2 -9.2 83 0.4 W 2 7 1 4 - - 0.0
26/10:00pm -5.9 -9.5 -7.6 88 0.3 WSW 4 9 2 5 - - 0.0
26/09:30pm -6.1 -9.1 -9.0 80 0.6 CALM 0 2 0 1 - - 0.0
26/09:00pm -4.1 -8.2 -6.5 83 0.6 WSW 7 19 4 10 - - 0.0
26/08:30pm -3.7 -7.8 -6.5 81 0.8 WSW 7 17 4 9 - - 0.0
26/08:00pm -3.4 -7.3 -6.5 79 0.9 WNW 6 17 3 9 - - 0.0
26/07:30pm -3.1 -7.9 -6.2 79 0.9 SW 11 20 6 11 - - 0.0
26/07:00pm -3.4 -7.4 -5.9 83 0.7 W 7 15 4 8 - - 0.0
26/06:30pm -4.4 -8.3 -6.8 83 0.6 WSW 6 9 3 5 - - 0.0
26/06:00pm -4.6 -7.7 -6.6 86 0.5 WSW 2 6 1 3 - - 0.0
26/05:30pm -3.5 -7.1 -6.9 77 1.0 W 4 11 2 6 - - 0.0

Other Formats:

Comma delimited format used in spreadsheet applications
http://www.bom.gov.au/fwo/IDN60801/IDN60801.94915.axf

JavaScript Object Notation format (JSON) in row-major order
http://www.bom.gov.au/fwo/IDN60801/IDN60801.94915.json